Atwood, Kansas
Current Conditions -  °F | °C
As of 11:35 AM on Monday 22 Dec 2014 (Local Time) from KCBK Reporting Station
Clear Clear  
Wind Chill: 36°   Ceiling: Unl
Heat Index: 45°   Visibility: 10mi
Dew Point: 32°   Wind: 23mph
Humidity: 61%   Direction: 310°NW
Pressure: 29.66"   Gusts: 31mph
Location:  39.81°N, 101.04°W
Report Text: KCBK 221735Z AUTO 31020G27KT 10SM CLR 07/00 A2966 RMK AO2
Loading
Personal Weather Stations






























Interactive Weather Map New forecast layout! Learn more

10-Day Weather Forecast

Advertisements
Track Severe Weather on mobile